Time;durP1;ratioP1;P1;durP2;ratioP2;P2;SDS_P1;SDS_P2;PMS_P1;PMS_P2;Temp;Humidity;BMP_temperature;BMP_pressure;BME280_temperature;BME280_humidity;BME280_pressure;Samples;Min_cycle;Max_cycle;Signal;HPM_P1;HPM_P2
2023/07/14 00:01:51;;;;;;;1.42;1.00;;;15.90;99.90;;;;;;4989181;28;20050;-81
2023/07/14 00:04:32;;;;;;;1.00;0.75;;;15.90;99.90;;;;;;4971568;28;20068;-78
2023/07/14 00:07:01;;;;;;;1.48;0.70;;;15.90;99.90;;;;;;4986345;28;20422;-81
2023/07/14 00:09:29;;;;;;;1.35;0.70;;;15.80;99.90;;;;;;4968004;28;20176;-83
2023/07/14 00:11:56;;;;;;;1.75;0.80;;;15.80;99.90;;;;;;4984553;28;20120;-82
2023/07/14 00:14:23;;;;;;;1.55;0.82;;;15.80;99.90;;;;;;4964393;28;20785;-78
2023/07/14 00:16:50;;;;;;;1.00;0.73;;;15.90;99.90;;;;;;5003797;28;20073;-77
2023/07/14 00:19:17;;;;;;;1.00;0.60;;;15.90;99.90;;;;;;4986269;28;20473;-80
2023/07/14 00:21:44;;;;;;;2.05;1.00;;;15.90;99.90;;;;;;4954625;28;20050;-78
2023/07/14 00:24:13;;;;;;;1.42;0.70;;;15.90;99.90;;;;;;5002882;28;20053;-78
2023/07/14 00:26:40;;;;;;;1.55;0.85;;;15.90;99.90;;;;;;5003449;28;20081;-80
2023/07/14 00:29:26;;;;;;;1.67;0.85;;;15.90;99.90;;;;;;4972126;28;20046;-83
2023/07/14 00:31:53;;;;;;;1.50;0.88;;;15.90;99.90;;;;;;4996163;28;20049;-79
2023/07/14 00:34:21;;;;;;;1.65;0.80;;;15.90;99.90;;;;;;5004854;28;20069;-81
2023/07/14 00:36:48;;;;;;;0.93;0.60;;;15.90;99.90;;;;;;5020387;28;20049;-77
2023/07/14 00:39:15;;;;;;;0.82;0.65;;;15.90;99.90;;;;;;5003367;28;20053;-78
2023/07/14 00:41:42;;;;;;;1.27;0.80;;;15.90;99.90;;;;;;4994647;28;20192;-77
2023/07/14 00:44:13;;;;;;;1.33;0.82;;;15.80;99.90;;;;;;5005303;28;20056;-78
2023/07/14 00:46:40;;;;;;;1.10;0.70;;;15.80;99.90;;;;;;4944330;28;20061;-81
2023/07/14 00:49:28;;;;;;;0.68;0.57;;;15.80;99.90;;;;;;4978610;28;20057;-86
2023/07/14 00:51:55;;;;;;;1.17;0.70;;;15.80;99.90;;;;;;4959475;28;20233;-84
2023/07/14 00:54:27;;;;;;;1.60;0.70;;;15.80;99.90;;;;;;4999764;28;20463;-85
2023/07/14 00:56:55;;;;;;;0.93;0.68;;;15.80;99.90;;;;;;4990055;28;20370;-83
2023/07/14 00:59:33;;;;;;;1.73;1.00;;;15.80;99.90;;;;;;4957762;28;20054;-81
2023/07/14 01:02:23;;;;;;;1.02;0.70;;;15.80;99.90;;;;;;4987485;28;20165;-79
2023/07/14 01:04:59;;;;;;;2.03;0.80;;;15.80;99.90;;;;;;4993643;28;20050;-79
2023/07/14 01:07:29;;;;;;;2.20;0.90;;;15.80;99.90;;;;;;4969987;28;20054;-78
2023/07/14 01:09:57;;;;;;;1.13;0.80;;;15.80;99.90;;;;;;5001107;28;20046;-78
2023/07/14 01:12:24;;;;;;;1.67;1.10;;;15.80;99.90;;;;;;5004205;28;20065;-83
2023/07/14 01:14:51;;;;;;;1.48;0.90;;;15.80;99.90;;;;;;5005425;28;20072;-80
2023/07/14 01:17:19;;;;;;;1.75;1.05;;;15.80;99.90;;;;;;4954171;28;20058;-83
2023/07/14 01:19:51;;;;;;;1.25;0.60;;;15.80;99.90;;;;;;4970493;28;20046;-80
2023/07/14 01:22:48;;;;;;;1.33;0.98;;;15.80;99.90;;;;;;4987106;28;20054;-78
2023/07/14 01:25:32;;;;;;;2.75;1.10;;;15.80;99.90;;;;;;4986767;28;20057;-81
2023/07/14 01:28:03;;;;;;;1.17;0.80;;;15.70;99.90;;;;;;4990043;28;20588;-78
2023/07/14 01:33:00;;;;;;;1.55;0.85;;;15.70;99.90;;;;;;5051712;28;20048;-77
2023/07/14 01:35:39;;;;;;;1.80;1.00;;;15.70;99.90;;;;;;5050901;28;20045;-77
2023/07/14 01:38:06;;;;;;;1.65;1.00;;;15.70;99.90;;;;;;5049865;28;20070;-77
2023/07/14 01:40:33;;;;;;;2.72;1.00;;;15.70;99.90;;;;;;5048931;28;20052;-76
2023/07/14 01:43:02;;;;;;;1.02;0.85;;;15.70;99.90;;;;;;5017860;28;20098;-76
2023/07/14 01:45:42;;;;;;;1.50;0.80;;;15.70;99.90;;;;;;5013322;28;20237;-77
2023/07/14 01:48:12;;;;;;;1.45;0.90;;;15.80;99.90;;;;;;5030886;28;20142;-75
2023/07/14 01:50:45;;;;;;;2.00;1.00;;;15.70;99.90;;;;;;5029758;28;20045;-76
2023/07/14 01:53:15;;;;;;;1.45;0.80;;;15.70;99.90;;;;;;5046404;28;20048;-76
2023/07/14 01:55:42;;;;;;;2.15;1.40;;;15.70;99.90;;;;;;5032945;28;20045;-77
2023/07/14 01:58:13;;;;;;;1.77;0.93;;;15.70;99.90;;;;;;5048163;28;20060;-76
2023/07/14 02:00:39;;;;;;;1.00;0.70;;;15.70;99.90;;;;;;5032442;28;20156;-76
2023/07/14 02:03:07;;;;;;;1.55;0.95;;;15.70;99.90;;;;;;5053368;28;20057;-76
2023/07/14 02:05:35;;;;;;;1.73;1.10;;;15.70;99.90;;;;;;5048817;28;20510;-76
2023/07/14 02:08:03;;;;;;;1.42;0.95;;;15.70;99.90;;;;;;5048874;28;20044;-76
2023/07/14 02:10:31;;;;;;;1.08;0.80;;;15.70;99.90;;;;;;5066118;28;20048;-76
2023/07/14 02:12:57;;;;;;;1.67;1.00;;;15.70;99.90;;;;;;5048218;28;20074;-77
2023/07/14 02:15:27;;;;;;;1.10;0.70;;;15.70;99.90;;;;;;5049016;28;20052;-77
2023/07/14 02:17:54;;;;;;;1.67;0.93;;;15.70;99.90;;;;;;5032098;28;20056;-76
2023/07/14 02:20:36;;;;;;;1.35;0.90;;;15.70;99.90;;;;;;5032979;28;20418;-76
2023/07/14 02:23:05;;;;;;;1.70;0.90;;;15.80;99.90;;;;;;5032312;28;20045;-76
2023/07/14 02:25:42;;;;;;;1.27;0.93;;;15.80;99.90;;;;;;5031574;28;20413;-76
2023/07/14 02:28:09;;;;;;;1.58;1.00;;;15.80;99.90;;;;;;5024733;28;20052;-76
2023/07/14 02:30:38;;;;;;;2.10;1.02;;;15.80;99.90;;;;;;5012890;28;20106;-76
2023/07/14 02:33:07;;;;;;;1.25;0.85;;;15.80;99.90;;;;;;5019671;28;20238;-75
2023/07/14 02:35:47;;;;;;;1.48;0.88;;;15.80;99.90;;;;;;5032329;28;20064;-76
2023/07/14 02:38:15;;;;;;;1.77;1.00;;;15.80;99.90;;;;;;5040140;28;20114;-77
2023/07/14 02:40:50;;;;;;;1.50;1.05;;;15.80;99.90;;;;;;5015311;28;20044;-76
2023/07/14 02:43:18;;;;;;;2.00;0.98;;;15.80;99.90;;;;;;5048350;28;20515;-77
2023/07/14 02:45:55;;;;;;;1.10;0.80;;;15.80;99.90;;;;;;5048619;28;20052;-77
2023/07/14 02:48:35;;;;;;;1.45;0.80;;;15.80;99.90;;;;;;5032317;28;20094;-77
2023/07/14 02:51:02;;;;;;;2.55;1.38;;;15.80;99.90;;;;;;5016406;28;20072;-77
2023/07/14 02:53:29;;;;;;;1.52;1.00;;;15.80;99.90;;;;;;5031108;28;20048;-77
2023/07/14 02:55:55;;;;;;;1.67;1.20;;;15.70;99.90;;;;;;5065387;28;20235;-76
2023/07/14 02:58:23;;;;;;;2.17;1.20;;;15.70;99.90;;;;;;5031017;28;20283;-77
2023/07/14 03:00:50;;;;;;;1.33;0.75;;;15.70;99.90;;;;;;5032168;28;20044;-76
2023/07/14 03:03:18;;;;;;;2.10;1.05;;;15.70;99.90;;;;;;5047768;28;20063;-76
2023/07/14 03:05:45;;;;;;;1.70;0.80;;;15.70;99.90;;;;;;5031549;28;20048;-77
2023/07/14 03:08:15;;;;;;;1.55;0.95;;;15.70;99.90;;;;;;5046265;28;20045;-77
2023/07/14 03:10:46;;;;;;;1.63;0.90;;;15.60;99.90;;;;;;5027985;28;20765;-77
2023/07/14 03:13:14;;;;;;;1.45;1.02;;;15.60;99.90;;;;;;5020532;28;20122;-77
2023/07/14 03:15:44;;;;;;;1.50;0.98;;;15.60;99.90;;;;;;5016403;28;20135;-76
2023/07/14 03:18:11;;;;;;;1.77;0.85;;;15.50;99.90;;;;;;5049083;28;20483;-76
2023/07/14 03:20:38;;;;;;;1.13;0.82;;;15.50;99.90;;;;;;5049145;28;20542;-76
2023/07/14 03:23:05;;;;;;;1.52;0.60;;;15.50;99.90;;;;;;5032106;28;20082;-76
2023/07/14 03:25:33;;;;;;;2.17;1.10;;;15.50;99.90;;;;;;5048269;28;20098;-76
2023/07/14 03:28:03;;;;;;;1.88;1.08;;;15.50;99.90;;;;;;5032445;28;20048;-76
2023/07/14 03:30:36;;;;;;;1.55;1.10;;;15.50;99.90;;;;;;5033047;28;20066;-77
2023/07/14 03:33:02;;;;;;;2.17;1.20;;;15.50;99.90;;;;;;5016130;28;20044;-76
2023/07/14 03:35:29;;;;;;;2.13;0.90;;;15.50;99.90;;;;;;5049281;28;20054;-76
2023/07/14 03:37:56;;;;;;;1.80;1.05;;;15.50;99.90;;;;;;5031538;28;20500;-76
2023/07/14 03:40:23;;;;;;;1.10;0.77;;;15.60;99.90;;;;;;5012352;28;20076;-76
2023/07/14 03:42:50;;;;;;;1.75;1.10;;;15.60;99.90;;;;;;5028591;28;20087;-77
2023/07/14 03:45:16;;;;;;;1.00;0.70;;;15.60;99.90;;;;;;5028577;28;20136;-76
2023/07/14 03:47:43;;;;;;;1.60;0.85;;;15.60;99.90;;;;;;5027932;28;20068;-76
2023/07/14 03:50:11;;;;;;;2.55;1.13;;;15.60;99.90;;;;;;5046627;28;20049;-76
2023/07/14 03:52:38;;;;;;;1.15;0.80;;;15.60;99.90;;;;;;5046822;28;20052;-75
2023/07/14 03:55:05;;;;;;;1.73;1.10;;;15.60;99.90;;;;;;5027998;28;20083;-76
2023/07/14 03:57:32;;;;;;;1.38;0.90;;;15.60;99.90;;;;;;5012680;28;20107;-76
2023/07/14 04:00:11;;;;;;;1.58;1.00;;;15.70;99.90;;;;;;5045773;28;20715;-76
2023/07/14 04:02:41;;;;;;;1.40;0.80;;;15.60;99.90;;;;;;5029520;28;20049;-75
2023/07/14 04:05:08;;;;;;;1.35;0.82;;;15.60;99.90;;;;;;5046183;28;20252;-75
2023/07/14 04:07:39;;;;;;;2.08;1.27;;;15.60;99.90;;;;;;5046500;28;20053;-76
2023/07/14 04:10:07;;;;;;;1.45;1.00;;;15.60;99.90;;;;;;5011739;28;20098;-76
2023/07/14 04:12:34;;;;;;;2.10;1.25;;;15.60;99.90;;;;;;4996152;28;20057;-76
2023/07/14 04:15:00;;;;;;;2.08;1.00;;;15.60;99.90;;;;;;4995765;28;20052;-76
2023/07/14 04:17:28;;;;;;;1.27;0.73;;;15.70;99.90;;;;;;5027818;28;20048;-76
2023/07/14 04:19:55;;;;;;;2.03;1.23;;;15.70;99.90;;;;;;5027905;28;20056;-76
2023/07/14 04:22:22;;;;;;;1.58;1.08;;;15.70;99.90;;;;;;5028660;28;20072;-76
2023/07/14 04:24:51;;;;;;;1.75;0.98;;;15.70;99.90;;;;;;5030590;28;20095;-76
2023/07/14 04:27:18;;;;;;;1.58;1.00;;;15.80;99.90;;;;;;5056310;28;20127;-76
2023/07/14 04:29:45;;;;;;;1.33;1.02;;;15.80;99.90;;;;;;5064925;28;20515;-75
2023/07/14 04:32:12;;;;;;;1.23;0.93;;;15.90;99.90;;;;;;5014468;28;20617;-77
2023/07/14 04:34:40;;;;;;;1.27;0.90;;;15.90;99.90;;;;;;5047530;28;20052;-76
2023/07/14 04:37:07;;;;;;;2.35;1.08;;;15.90;99.90;;;;;;5030723;28;20048;-77
2023/07/14 04:39:34;;;;;;;2.13;1.00;;;16.00;99.90;;;;;;5014552;28;20058;-76
2023/07/14 04:42:01;;;;;;;1.95;1.27;;;16.00;99.90;;;;;;5031917;28;20064;-76
2023/07/14 04:44:28;;;;;;;1.67;0.93;;;16.00;99.90;;;;;;5014737;28;20044;-76
2023/07/14 04:46:58;;;;;;;1.10;1.00;;;16.00;99.90;;;;;;5015676;28;20052;-76
2023/07/14 04:49:25;;;;;;;1.73;1.10;;;16.10;99.90;;;;;;5026682;28;20666;-76
2023/07/14 04:51:52;;;;;;;1.48;0.70;;;16.10;99.90;;;;;;4999902;28;20053;-76
2023/07/14 04:54:19;;;;;;;1.73;1.00;;;16.20;99.90;;;;;;5023424;28;20078;-76
2023/07/14 04:56:46;;;;;;;2.72;1.20;;;16.20;99.90;;;;;;5002105;28;20089;-76
2023/07/14 04:59:12;;;;;;;2.35;0.80;;;16.20;99.90;;;;;;5022863;28;20094;-75
2023/07/14 05:01:39;;;;;;;1.00;0.73;;;16.30;99.90;;;;;;5063074;28;20093;-76
2023/07/14 05:04:06;;;;;;;1.48;1.10;;;16.40;99.90;;;;;;5015213;28;20048;-76
2023/07/14 05:06:33;;;;;;;1.48;0.90;;;16.40;99.90;;;;;;5025615;28;20542;-76
2023/07/14 05:09:00;;;;;;;1.15;0.73;;;16.40;99.90;;;;;;5011106;28;20559;-76
2023/07/14 05:11:27;;;;;;;1.92;1.02;;;16.50;99.90;;;;;;5017453;28;20052;-76
2023/07/14 05:13:54;;;;;;;1.83;0.98;;;16.50;99.90;;;;;;4996410;28;20120;-76
2023/07/14 05:16:21;;;;;;;1.38;1.08;;;16.50;99.90;;;;;;5030625;28;20187;-77
2023/07/14 05:18:48;;;;;;;1.13;0.82;;;16.60;99.90;;;;;;5001048;28;20049;-76
2023/07/14 05:21:15;;;;;;;1.65;1.10;;;16.60;99.90;;;;;;4999024;28;20041;-76
2023/07/14 05:23:42;;;;;;;1.90;1.30;;;16.70;99.90;;;;;;5005427;28;20080;-76
2023/07/14 05:26:08;;;;;;;1.58;1.13;;;16.80;99.90;;;;;;5006848;28;20550;-77
2023/07/14 05:28:35;;;;;;;1.77;1.30;;;16.80;99.90;;;;;;4989949;28;20473;-76
2023/07/14 05:31:04;;;;;;;1.85;1.10;;;16.80;99.90;;;;;;5005141;28;20094;-77
2023/07/14 05:33:31;;;;;;;2.15;1.15;;;16.90;99.90;;;;;;4999997;28;20040;-77
2023/07/14 05:35:58;;;;;;;1.30;0.90;;;16.90;99.90;;;;;;4997594;28;20045;-77
2023/07/14 05:38:26;;;;;;;1.90;1.00;;;17.00;99.90;;;;;;5021658;28;20111;-77
2023/07/14 05:40:54;;;;;;;1.45;0.80;;;17.00;99.90;;;;;;5014501;28;20494;-77
2023/07/14 05:43:26;;;;;;;1.83;1.00;;;17.10;99.90;;;;;;5011820;28;20138;-76
2023/07/14 05:45:52;;;;;;;1.30;0.80;;;17.10;99.90;;;;;;4984940;28;20406;-76
2023/07/14 05:48:19;;;;;;;1.80;1.00;;;17.10;99.90;;;;;;5012469;28;20060;-76
2023/07/14 05:50:46;;;;;;;1.50;0.90;;;17.20;99.90;;;;;;4997772;28;20059;-75
2023/07/14 05:53:14;;;;;;;1.27;0.80;;;17.20;99.90;;;;;;5016109;28;20057;-77
2023/07/14 05:55:41;;;;;;;2.15;1.40;;;17.20;99.90;;;;;;5027525;28;20444;-77
2023/07/14 05:58:08;;;;;;;1.38;0.95;;;17.20;99.90;;;;;;5018549;28;20073;-75
2023/07/14 06:00:38;;;;;;;2.00;1.13;;;17.30;99.90;;;;;;5006091;28;20709;-77
2023/07/14 06:03:06;;;;;;;1.75;1.00;;;17.30;99.90;;;;;;5000364;28;20069;-76
2023/07/14 06:05:34;;;;;;;1.73;1.10;;;17.30;99.90;;;;;;5014739;28;20128;-77
2023/07/14 06:08:00;;;;;;;1.65;1.00;;;17.30;99.90;;;;;;5008136;28;20053;-78
2023/07/14 06:10:27;;;;;;;1.98;1.05;;;17.30;99.90;;;;;;4975439;28;20527;-76
2023/07/14 06:12:54;;;;;;;2.15;1.10;;;17.30;99.90;;;;;;5007096;28;20063;-75
2023/07/14 06:15:21;;;;;;;1.75;1.23;;;17.30;99.90;;;;;;5025430;28;20057;-76
2023/07/14 06:17:48;;;;;;;1.17;0.82;;;17.40;99.90;;;;;;4995058;28;20115;-76
2023/07/14 06:20:15;;;;;;;1.67;0.93;;;17.50;99.90;;;;;;5000147;28;20061;-76
2023/07/14 06:22:42;;;;;;;1.02;0.90;;;17.50;99.90;;;;;;5003555;28;20049;-76
2023/07/14 06:25:09;;;;;;;1.83;0.90;;;17.70;99.90;;;;;;5011085;28;20048;-76
2023/07/14 06:27:36;;;;;;;1.77;0.90;;;17.80;99.90;;;;;;5017022;28;20053;-76
2023/07/14 06:30:04;;;;;;;1.30;1.00;;;17.80;99.90;;;;;;5012515;28;20748;-76
2023/07/14 06:32:31;;;;;;;1.15;1.02;;;17.80;99.90;;;;;;5014768;28;20140;-76
2023/07/14 06:34:57;;;;;;;2.45;1.35;;;17.80;99.90;;;;;;5027094;28;20128;-76
2023/07/14 06:37:27;;;;;;;1.83;1.10;;;17.90;99.90;;;;;;5023779;28;20565;-76
2023/07/14 06:39:54;;;;;;;1.15;1.00;;;17.90;99.90;;;;;;4992619;28;20052;-76
2023/07/14 06:42:21;;;;;;;2.03;1.20;;;18.00;99.90;;;;;;5010462;28;20061;-77
2023/07/14 06:44:48;;;;;;;1.13;0.80;;;18.00;99.90;;;;;;5009114;28;20052;-76
2023/07/14 06:47:14;;;;;;;1.40;1.00;;;18.10;99.90;;;;;;5008935;28;20050;-77
2023/07/14 06:49:42;;;;;;;1.83;1.05;;;18.10;99.90;;;;;;4990754;28;20920;-77
2023/07/14 06:52:09;;;;;;;1.95;0.85;;;18.20;99.90;;;;;;5022143;28;20558;-76
2023/07/14 06:54:35;;;;;;;1.58;0.80;;;18.30;99.90;;;;;;5006051;28;20088;-77
2023/07/14 06:57:06;;;;;;;1.15;0.70;;;18.50;99.90;;;;;;5036352;28;20041;-77
2023/07/14 06:59:33;;;;;;;1.02;0.80;;;18.60;99.90;;;;;;5036373;28;20049;-76
2023/07/14 07:02:01;;;;;;;1.95;0.90;;;18.70;99.90;;;;;;5011893;28;20056;-77
2023/07/14 07:04:28;;;;;;;1.30;0.90;;;18.70;99.90;;;;;;5032967;28;20183;-76
2023/07/14 07:06:55;;;;;;;1.73;0.90;;;18.80;99.90;;;;;;5028825;28;20045;-76
2023/07/14 07:09:22;;;;;;;1.63;1.00;;;18.90;99.90;;;;;;5031046;28;20041;-77
2023/07/14 07:11:49;;;;;;;2.67;1.13;;;19.00;99.90;;;;;;4998673;28;20072;-76
2023/07/14 07:14:15;;;;;;;1.58;1.00;;;19.00;99.90;;;;;;5018863;28;20386;-77
2023/07/14 07:16:42;;;;;;;1.50;0.95;;;19.10;99.90;;;;;;5013121;28;20103;-77
2023/07/14 07:19:09;;;;;;;1.25;0.82;;;19.20;99.90;;;;;;5030049;28;20152;-76
2023/07/14 07:21:35;;;;;;;1.27;1.00;;;19.30;99.90;;;;;;5022501;28;20038;-76
2023/07/14 07:24:06;;;;;;;2.05;1.52;;;19.30;99.90;;;;;;5043801;28;20056;-76
2023/07/14 07:26:32;;;;;;;1.67;1.10;;;19.30;99.90;;;;;;5012249;28;20061;-76
2023/07/14 07:29:01;;;;;;;1.83;1.10;;;19.20;99.90;;;;;;5037695;28;20054;-76
2023/07/14 07:31:28;;;;;;;1.25;0.98;;;19.10;99.90;;;;;;5043834;28;20067;-76
2023/07/14 07:33:55;;;;;;;2.00;1.17;;;19.10;99.90;;;;;;4994116;28;20055;-76
2023/07/14 07:36:24;;;;;;;1.88;1.15;;;19.10;99.90;;;;;;5022874;28;20061;-76
2023/07/14 07:38:51;;;;;;;2.15;1.20;;;19.00;99.90;;;;;;5031230;28;20103;-76
2023/07/14 07:41:20;;;;;;;1.45;1.20;;;19.00;99.90;;;;;;5025416;28;20048;-76
2023/07/14 07:43:47;;;;;;;2.15;1.20;;;19.00;99.90;;;;;;5025321;28;20063;-75
2023/07/14 07:46:14;;;;;;;1.48;0.98;;;19.00;99.90;;;;;;5007705;28;20052;-75
2023/07/14 07:48:42;;;;;;;1.63;1.27;;;19.00;99.90;;;;;;5006804;28;20072;-76
2023/07/14 07:51:09;;;;;;;1.77;1.20;;;19.00;99.90;;;;;;5003977;28;20048;-76
2023/07/14 07:53:36;;;;;;;1.25;0.70;;;19.10;99.90;;;;;;5017316;28;20061;-76
2023/07/14 07:56:03;;;;;;;2.00;1.20;;;19.00;99.90;;;;;;4977583;28;20064;-76
2023/07/14 07:58:30;;;;;;;1.23;0.80;;;19.00;99.90;;;;;;5014769;28;20057;-76
2023/07/14 08:01:03;;;;;;;1.38;0.90;;;19.00;99.90;;;;;;4990297;28;20068;-76
2023/07/14 08:03:31;;;;;;;1.90;1.20;;;18.90;99.90;;;;;;4991430;28;20053;-76
2023/07/14 08:05:59;;;;;;;1.83;1.08;;;18.90;99.90;;;;;;4996224;28;20095;-77
2023/07/14 08:08:26;;;;;;;3.03;0.88;;;18.90;99.90;;;;;;5015424;28;20939;-77
2023/07/14 08:10:53;;;;;;;1.88;1.23;;;18.80;99.90;;;;;;5002048;28;20076;-76
2023/07/14 08:13:20;;;;;;;1.95;1.25;;;18.60;99.90;;;;;;4982769;28;20057;-76
2023/07/14 08:15:47;;;;;;;2.47;1.20;;;18.60;99.90;;;;;;5028108;28;20049;-76
2023/07/14 08:18:17;;;;;;;1.80;0.95;;;18.60;99.90;;;;;;5024123;28;20052;-76
2023/07/14 08:20:43;;;;;;;1.83;0.93;;;18.60;99.90;;;;;;5038604;28;20122;-77
2023/07/14 08:23:13;;;;;;;1.90;1.00;;;18.60;99.90;;;;;;5000105;28;20053;-77
2023/07/14 08:25:41;;;;;;;1.65;1.10;;;18.60;99.90;;;;;;5006959;28;20045;-76
2023/07/14 08:28:08;;;;;;;2.92;1.15;;;18.50;99.90;;;;;;5028467;28;20421;-76
2023/07/14 08:30:35;;;;;;;2.10;1.52;;;18.40;99.90;;;;;;5007343;28;20041;-75
2023/07/14 08:33:02;;;;;;;1.55;0.95;;;18.30;99.90;;;;;;5043699;28;20052;-76
2023/07/14 08:35:29;;;;;;;1.75;1.23;;;18.30;99.90;;;;;;5018338;28;20576;-77
2023/07/14 08:37:55;;;;;;;1.55;1.15;;;18.20;99.90;;;;;;5003119;28;20049;-77
2023/07/14 08:40:37;;;;;;;1.92;1.13;;;18.20;99.90;;;;;;4991018;28;20057;-76
2023/07/14 08:43:07;;;;;;;1.52;0.95;;;18.20;99.90;;;;;;4997594;28;20048;-76
2023/07/14 08:45:59;;;;;;;2.13;1.52;;;18.20;99.90;;;;;;5002569;28;20061;-76
2023/07/14 08:48:40;;;;;;;1.45;1.00;;;18.20;99.90;;;;;;4999809;28;20046;-76
2023/07/14 08:51:17;;;;;;;1.00;0.75;;;18.10;99.90;;;;;;5000619;28;20060;-75
2023/07/14 08:53:50;;;;;;;1.60;1.02;;;18.00;99.90;;;;;;4991729;28;20056;-76
2023/07/14 08:56:18;;;;;;;;;;;18.00;99.90;;;;;;4994187;28;20213;-75
2023/07/14 08:58:45;;;;;;;1.70;1.17;;;18.00;99.90;;;;;;5002286;28;19932;-76
2023/07/14 09:01:38;;;;;;;1.58;1.05;;;18.00;99.90;;;;;;4990497;28;20044;-75
2023/07/14 09:04:09;;;;;;;1.85;1.20;;;18.00;99.90;;;;;;4998001;28;20788;-76
2023/07/14 09:06:36;;;;;;;1.67;1.25;;;18.10;99.90;;;;;;5010444;28;20053;-75
2023/07/14 09:09:05;;;;;;;2.75;1.58;;;18.10;99.90;;;;;;4987255;28;20118;-75
2023/07/14 09:11:41;;;;;;;1.63;1.10;;;18.10;99.90;;;;;;4978204;28;20080;-75
2023/07/14 09:14:26;;;;;;;1.83;1.10;;;18.20;99.90;;;;;;5039394;28;20250;-75
2023/07/14 09:16:59;;;;;;;1.50;0.90;;;18.20;99.90;;;;;;5028226;28;20080;-75
2023/07/14 09:19:57;;;;;;;1.50;1.10;;;18.30;99.90;;;;;;5012016;28;20107;-76
2023/07/14 09:22:39;;;;;;;1.65;1.00;;;18.30;99.90;;;;;;4985298;28;20060;-76
2023/07/14 09:25:23;;;;;;;1.20;1.10;;;18.30;99.90;;;;;;5014610;28;20516;-76
2023/07/14 09:27:50;;;;;;;2.20;1.20;;;18.40;99.90;;;;;;5005378;28;20049;-76
2023/07/14 09:30:26;;;;;;;1.33;0.80;;;18.30;99.90;;;;;;5009771;28;20049;-76
2023/07/14 09:32:55;;;;;;;1.35;1.00;;;18.30;99.90;;;;;;5001710;28;20052;-76
2023/07/14 09:35:24;;;;;;;1.63;1.10;;;18.20;99.90;;;;;;5039918;28;20075;-76
2023/07/14 09:38:03;;;;;;;1.70;1.08;;;18.00;99.90;;;;;;5023584;28;20051;-76
2023/07/14 09:40:34;;;;;;;1.17;1.00;;;18.00;99.90;;;;;;5039078;28;20519;-74
2023/07/14 09:43:01;;;;;;;1.83;1.00;;;17.90;99.90;;;;;;5014434;28;20545;-76
2023/07/14 09:45:33;;;;;;;1.48;1.00;;;17.90;99.90;;;;;;5001799;28;20092;-76
2023/07/14 09:48:22;;;;;;;1.48;1.00;;;17.90;99.90;;;;;;5005425;28;20134;-76
2023/07/14 09:51:03;;;;;;;1.70;1.20;;;17.90;99.90;;;;;;5023636;28;20154;-77
2023/07/14 09:53:33;;;;;;;1.70;1.00;;;17.90;99.90;;;;;;5032652;28;20052;-77
2023/07/14 09:56:01;;;;;;;2.25;1.10;;;18.00;99.90;;;;;;5023509;28;20156;-77
2023/07/14 09:58:30;;;;;;;1.63;1.10;;;18.10;99.90;;;;;;5040091;28;20236;-79
2023/07/14 10:00:59;;;;;;;1.30;1.10;;;18.10;99.90;;;;;;5033101;28;20057;-76
2023/07/14 10:03:47;;;;;;;1.30;0.90;;;18.20;99.90;;;;;;5008766;28;20528;-78
2023/07/14 10:06:16;;;;;;;1.38;0.80;;;18.30;99.90;;;;;;5020178;28;20527;-78
2023/07/14 10:08:49;;;;;;;2.00;1.17;;;18.50;99.90;;;;;;5007502;28;20045;-78
2023/07/14 10:11:27;;;;;;;1.63;1.20;;;18.50;99.90;;;;;;5000109;28;20053;-77
2023/07/14 10:14:05;;;;;;;1.55;1.27;;;18.60;99.90;;;;;;5027283;28;20042;-76
2023/07/14 10:16:32;;;;;;;2.25;1.30;;;18.60;99.90;;;;;;5021406;28;20571;-76
2023/07/14 10:19:17;;;;;;;1.42;1.20;;;18.70;99.90;;;;;;5029490;28;20053;-77
2023/07/14 10:21:58;;;;;;;1.30;0.98;;;18.90;99.90;;;;;;5004173;28;20213;-76
2023/07/14 10:24:26;;;;;;;2.22;1.25;;;19.10;99.90;;;;;;5015199;28;20056;-76
2023/07/14 10:27:01;;;;;;;1.30;1.02;;;19.30;99.90;;;;;;4989383;28;20053;-76
2023/07/14 10:29:41;;;;;;;1.92;1.25;;;19.40;99.90;;;;;;5025421;28;20399;-76
2023/07/14 10:32:11;;;;;;;2.63;1.20;;;19.50;99.90;;;;;;4987041;28;20053;-75
2023/07/14 10:34:57;;;;;;;1.25;0.95;;;19.40;99.90;;;;;;4996458;28;20084;-76
2023/07/14 10:37:31;;;;;;;3.10;1.98;;;19.40;99.90;;;;;;5020894;28;20140;-76
2023/07/14 10:40:05;;;;;;;3.07;2.43;;;19.40;99.90;;;;;;4987833;28;21752;-75
2023/07/14 10:42:34;;;;;;;2.50;1.77;;;19.40;99.90;;;;;;5008141;28;20081;-77
2023/07/14 10:45:01;;;;;;;2.47;1.60;;;19.30;99.90;;;;;;5012608;28;20052;-75
2023/07/14 10:47:33;;;;;;;2.47;1.60;;;19.30;99.90;;;;;;4986497;28;20101;-75
2023/07/14 10:50:17;;;;;;;3.53;1.45;;;19.20;99.90;;;;;;4991908;28;20049;-76
2023/07/14 10:52:46;;;;;;;2.40;1.42;;;19.20;99.90;;;;;;5006775;28;20126;-77
2023/07/14 10:55:22;;;;;;;3.60;1.67;;;19.30;99.90;;;;;;5003642;28;20141;-76
2023/07/14 10:57:58;;;;;;;1.75;1.20;;;19.30;99.90;;;;;;5009200;28;20546;-76
2023/07/14 11:00:50;;;;;;;2.20;1.70;;;19.40;99.90;;;;;;4983214;28;20661;-76
2023/07/14 11:03:35;;;;;;;2.78;1.70;;;19.30;99.90;;;;;;5011465;28;20053;-77
2023/07/14 11:06:04;;;;;;;3.17;1.70;;;19.30;99.90;;;;;;5000231;28;20071;-76
2023/07/14 11:08:32;;;;;;;1.73;1.38;;;19.30;99.90;;;;;;4998088;28;20159;-76
2023/07/14 11:11:01;;;;;;;2.38;1.73;;;19.30;99.90;;;;;;4990083;28;20054;-76
2023/07/14 11:13:58;;;;;;;2.45;1.48;;;19.30;99.90;;;;;;5009181;28;20631;-76
2023/07/14 11:16:42;;;;;;;1.40;1.10;;;19.30;99.90;;;;;;5040069;28;20053;-76
2023/07/14 11:19:14;;;;;;;2.28;1.40;;;19.30;99.90;;;;;;5008843;28;20060;-76
2023/07/14 11:21:44;;;;;;;1.33;1.00;;;19.30;99.90;;;;;;5028278;28;20044;-76
2023/07/14 11:25:21;;;;;;;1.50;1.10;;;19.30;99.90;;;;;;5021651;28;20053;-76
2023/07/14 11:28:21;;;;;;;1.33;1.05;;;19.30;99.90;;;;;;4892938;29;20051;-76
2023/07/14 11:30:50;;;;;;;1.92;1.30;;;19.30;99.90;;;;;;4895975;29;20051;-76
2023/07/14 11:33:24;;;;;;;2.78;1.50;;;19.40;99.90;;;;;;5005652;28;20056;-76
2023/07/14 11:36:11;;;;;;;1.50;1.10;;;19.50;99.90;;;;;;4999016;28;20053;-76
2023/07/14 11:38:58;;;;;;;1.75;1.38;;;19.50;99.90;;;;;;5009741;28;20502;-76
2023/07/14 11:41:25;;;;;;;2.45;1.38;;;19.60;99.90;;;;;;5020019;28;20102;-76
2023/07/14 11:43:52;;;;;;;2.38;1.55;;;19.60;99.90;;;;;;5022804;28;20521;-76
2023/07/14 11:46:20;;;;;;;1.88;1.30;;;19.60;99.90;;;;;;4983871;28;20128;-76
2023/07/14 11:48:49;;;;;;;1.60;1.20;;;19.60;99.90;;;;;;5001323;28;20069;-76
2023/07/14 11:51:17;;;;;;;2.15;1.45;;;19.60;99.90;;;;;;5033451;28;20045;-75
2023/07/14 11:54:15;;;;;;;3.45;1.52;;;19.60;99.90;;;;;;5018927;28;20083;-76
2023/07/14 11:56:45;;;;;;;1.45;1.13;;;19.50;99.90;;;;;;5042013;28;20048;-75
2023/07/14 11:59:29;;;;;;;1.70;1.40;;;19.50;99.90;;;;;;5018907;28;20490;-75
2023/07/14 12:02:21;;;;;;;2.42;1.63;;;19.50;99.90;;;;;;5005848;28;20583;-75
2023/07/14 12:05:19;;;;;;;1.95;1.33;;;19.50;99.90;;;;;;5027358;28;20160;-74
2023/07/14 12:08:04;;;;;;;2.15;1.50;;;19.50;99.90;;;;;;5005963;28;20072;-76
2023/07/14 12:10:51;;;;;;;2.83;1.58;;;19.50;99.90;;;;;;5025276;28;20041;-75
2023/07/14 12:13:18;;;;;;;1.83;1.50;;;19.60;99.90;;;;;;4991922;28;20044;-76
2023/07/14 12:15:49;;;;;;;2.05;1.13;;;19.80;99.90;;;;;;5016941;28;20053;-76
2023/07/14 12:18:22;;;;;;;1.83;1.27;;;20.00;99.90;;;;;;5000985;28;20041;-76
2023/07/14 12:20:49;;;;;;;2.13;1.77;;;20.20;99.90;;;;;;5005430;28;20103;-76
2023/07/14 12:23:28;;;;;;;1.85;1.63;;;20.20;99.90;;;;;;4993162;28;20110;-77
2023/07/14 12:26:05;;;;;;;1.65;1.30;;;20.40;99.90;;;;;;5007004;28;20963;-77
2023/07/14 12:28:35;;;;;;;1.80;1.40;;;20.50;99.90;;;;;;4984840;28;20045;-78
2023/07/14 12:31:12;;;;;;;1.85;1.38;;;20.50;99.90;;;;;;4992409;28;20053;-75
2023/07/14 12:33:40;;;;;;;2.00;1.40;;;20.40;99.90;;;;;;5007802;28;20543;-75
2023/07/14 12:36:15;;;;;;;2.28;1.48;;;20.40;99.90;;;;;;5023549;28;20136;-75
2023/07/14 12:38:50;;;;;;;1.92;1.40;;;20.50;99.90;;;;;;5019947;28;20076;-75
2023/07/14 12:41:16;;;;;;;1.98;0.98;;;20.60;99.90;;;;;;4985547;28;20046;-75
2023/07/14 12:43:54;;;;;;;1.35;1.02;;;20.70;99.90;;;;;;5013054;28;20059;-75
2023/07/14 12:46:30;;;;;;;2.15;1.30;;;20.60;99.90;;;;;;4994357;28;20128;-75
2023/07/14 12:49:33;;;;;;;1.83;1.25;;;20.50;99.90;;;;;;4998466;28;20139;-80
2023/07/14 12:52:11;;;;;;;2.15;1.40;;;20.40;99.90;;;;;;5003536;28;20158;-80
2023/07/14 12:54:45;;;;;;;1.98;1.52;;;20.30;99.90;;;;;;5000226;28;20152;-80
2023/07/14 12:57:13;;;;;;;2.00;1.38;;;20.30;99.90;;;;;;5003023;28;20059;-80
2023/07/14 12:59:40;;;;;;;1.95;1.30;;;20.20;99.90;;;;;;5001488;28;20072;-81
2023/07/14 13:02:14;;;;;;;1.65;1.27;;;20.10;99.90;;;;;;4991610;28;20096;-80
2023/07/14 13:04:41;;;;;;;1.90;1.10;;;20.10;99.90;;;;;;4996370;28;20053;-80
2023/07/14 13:07:18;;;;;;;1.42;1.00;;;20.10;99.90;;;;;;4984388;28;20073;-80
2023/07/14 13:09:45;;;;;;;1.80;1.15;;;20.10;99.90;;;;;;5024914;28;20059;-82
2023/07/14 13:12:13;;;;;;;2.13;1.17;;;20.10;99.90;;;;;;4999002;28;20048;-81